sensor_id;sensor_type;location;lat;lon;timestamp;pressure;altitude;pressure_sealevel;temperature;humidity
36190;BME280;22232;50.914;13.858;2023-08-08T00:01:31;97583.94;;;11.78;100.00
36190;BME280;22232;50.914;13.858;2023-08-08T00:03:59;97591.59;;;11.74;100.00
36190;BME280;22232;50.914;13.858;2023-08-08T00:06:27;97586.84;;;11.76;100.00
36190;BME280;22232;50.914;13.858;2023-08-08T00:08:54;97588.38;;;11.72;100.00
36190;BME280;22232;50.914;13.858;2023-08-08T00:11:22;97585.31;;;11.63;100.00
36190;BME280;22232;50.914;13.858;2023-08-08T00:13:50;97587.97;;;11.63;100.00
36190;BME280;22232;50.914;13.858;2023-08-08T00:16:18;97585.94;;;11.54;100.00
36190;BME280;22232;50.914;13.858;2023-08-08T00:18:46;97580.34;;;11.55;100.00
36190;BME280;22232;50.914;13.858;2023-08-08T00:21:14;97584.25;;;11.47;100.00
36190;BME280;22232;50.914;13.858;2023-08-08T00:23:41;97586.50;;;11.39;100.00
36190;BME280;22232;50.914;13.858;2023-08-08T00:26:09;97586.50;;;11.39;100.00
36190;BME280;22232;50.914;13.858;2023-08-08T00:28:37;97584.84;;;11.38;100.00
36190;BME280;22232;50.914;13.858;2023-08-08T00:31:05;97578.72;;;11.37;100.00
36190;BME280;22232;50.914;13.858;2023-08-08T00:33:33;97577.44;;;11.40;100.00
36190;BME280;22232;50.914;13.858;2023-08-08T00:36:00;97571.50;;;11.38;100.00
36190;BME280;22232;50.914;13.858;2023-08-08T00:38:28;97571.28;;;11.39;100.00
36190;BME280;22232;50.914;13.858;2023-08-08T00:40:56;97562.16;;;11.35;100.00
36190;BME280;22232;50.914;13.858;2023-08-08T00:43:24;97562.38;;;11.34;100.00
36190;BME280;22232;50.914;13.858;2023-08-08T00:45:51;97565.84;;;11.34;100.00
36190;BME280;22232;50.914;13.858;2023-08-08T00:48:19;97561.25;;;11.30;100.00
36190;BME280;22232;50.914;13.858;2023-08-08T00:50:48;97569.16;;;11.24;100.00
36190;BME280;22232;50.914;13.858;2023-08-08T00:53:18;97564.56;;;11.20;100.00
36190;BME280;22232;50.914;13.858;2023-08-08T00:55:47;97567.44;;;11.18;100.00
36190;BME280;22232;50.914;13.858;2023-08-08T00:58:15;97569.31;;;11.18;100.00
36190;BME280;22232;50.914;13.858;2023-08-08T01:00:43;97574.28;;;11.26;100.00
36190;BME280;22232;50.914;13.858;2023-08-08T01:03:11;97569.97;;;11.25;100.00
36190;BME280;22232;50.914;13.858;2023-08-08T01:05:44;97570.44;;;11.22;100.00
36190;BME280;22232;50.914;13.858;2023-08-08T01:08:19;97569.06;;;11.19;100.00
36190;BME280;22232;50.914;13.858;2023-08-08T01:10:50;97561.53;;;11.16;100.00
36190;BME280;22232;50.914;13.858;2023-08-08T01:13:23;97561.19;;;11.13;100.00
36190;BME280;22232;50.914;13.858;2023-08-08T01:15:54;97560.63;;;11.11;100.00
36190;BME280;22232;50.914;13.858;2023-08-08T01:18:24;97558.53;;;11.13;100.00
36190;BME280;22232;50.914;13.858;2023-08-08T01:20:53;97555.72;;;11.19;100.00
36190;BME280;22232;50.914;13.858;2023-08-08T01:26:05;97550.53;;;11.13;100.00
36190;BME280;22232;50.914;13.858;2023-08-08T01:28:33;97549.72;;;11.12;100.00
36190;BME280;22232;50.914;13.858;2023-08-08T01:31:03;97548.81;;;11.07;100.00
36190;BME280;22232;50.914;13.858;2023-08-08T01:33:31;97555.22;;;11.06;100.00
36190;BME280;22232;50.914;13.858;2023-08-08T01:36:07;97552.78;;;11.04;100.00
36190;BME280;22232;50.914;13.858;2023-08-08T01:38:41;97548.59;;;11.08;100.00
36190;BME280;22232;50.914;13.858;2023-08-08T01:41:11;97541.56;;;11.02;100.00
36190;BME280;22232;50.914;13.858;2023-08-08T01:43:39;97543.16;;;11.03;100.00
36190;BME280;22232;50.914;13.858;2023-08-08T01:46:08;97542.50;;;10.96;100.00
36190;BME280;22232;50.914;13.858;2023-08-08T01:48:36;97541.59;;;10.90;100.00
36190;BME280;22232;50.914;13.858;2023-08-08T01:51:04;97534.41;;;10.91;100.00
36190;BME280;22232;50.914;13.858;2023-08-08T01:53:32;97527.53;;;10.95;100.00
36190;BME280;22232;50.914;13.858;2023-08-08T01:55:59;97539.34;;;10.99;100.00
36190;BME280;22232;50.914;13.858;2023-08-08T01:58:27;97536.75;;;11.04;100.00
36190;BME280;22232;50.914;13.858;2023-08-08T02:00:55;97530.28;;;11.00;100.00
36190;BME280;22232;50.914;13.858;2023-08-08T02:03:23;97534.81;;;10.99;100.00
36190;BME280;22232;50.914;13.858;2023-08-08T02:05:51;97534.03;;;10.99;100.00
36190;BME280;22232;50.914;13.858;2023-08-08T02:08:19;97540.16;;;10.99;100.00
36190;BME280;22232;50.914;13.858;2023-08-08T02:10:47;97542.34;;;11.02;100.00
36190;BME280;22232;50.914;13.858;2023-08-08T02:13:14;97533.19;;;10.98;100.00
36190;BME280;22232;50.914;13.858;2023-08-08T02:15:42;97536.00;;;10.92;100.00
36190;BME280;22232;50.914;13.858;2023-08-08T02:18:10;97529.06;;;10.91;100.00
36190;BME280;22232;50.914;13.858;2023-08-08T02:20:38;97526.88;;;10.88;100.00
36190;BME280;22232;50.914;13.858;2023-08-08T02:23:06;97530.19;;;10.95;100.00
36190;BME280;22232;50.914;13.858;2023-08-08T02:25:34;97529.75;;;10.86;100.00
36190;BME280;22232;50.914;13.858;2023-08-08T02:28:01;97535.94;;;10.87;100.00
36190;BME280;22232;50.914;13.858;2023-08-08T02:30:29;97536.63;;;10.82;100.00
36190;BME280;22232;50.914;13.858;2023-08-08T02:32:57;97534.69;;;10.77;100.00
36190;BME280;22232;50.914;13.858;2023-08-08T02:35:26;97535.41;;;10.73;100.00
36190;BME280;22232;50.914;13.858;2023-08-08T02:37:54;97534.41;;;10.62;100.00
36190;BME280;22232;50.914;13.858;2023-08-08T02:40:22;97536.03;;;10.63;100.00
36190;BME280;22232;50.914;13.858;2023-08-08T02:42:51;97525.97;;;10.53;100.00
36190;BME280;22232;50.914;13.858;2023-08-08T02:45:18;97525.38;;;10.51;100.00
36190;BME280;22232;50.914;13.858;2023-08-08T02:47:46;97534.31;;;10.57;100.00
36190;BME280;22232;50.914;13.858;2023-08-08T02:50:14;97527.59;;;10.54;100.00
36190;BME280;22232;50.914;13.858;2023-08-08T02:52:43;97521.44;;;10.54;100.00
36190;BME280;22232;50.914;13.858;2023-08-08T02:55:11;97524.13;;;10.54;100.00
36190;BME280;22232;50.914;13.858;2023-08-08T02:57:40;97526.88;;;10.59;100.00
36190;BME280;22232;50.914;13.858;2023-08-08T03:00:08;97529.19;;;10.55;100.00
36190;BME280;22232;50.914;13.858;2023-08-08T03:02:39;97534.44;;;10.50;100.00
36190;BME280;22232;50.914;13.858;2023-08-08T03:05:08;97529.81;;;10.46;100.00
36190;BME280;22232;50.914;13.858;2023-08-08T03:07:36;97532.38;;;10.41;100.00
36190;BME280;22232;50.914;13.858;2023-08-08T03:10:04;97532.47;;;10.46;100.00
36190;BME280;22232;50.914;13.858;2023-08-08T03:12:34;97538.38;;;10.48;100.00
36190;BME280;22232;50.914;13.858;2023-08-08T03:15:02;97534.34;;;10.45;100.00
36190;BME280;22232;50.914;13.858;2023-08-08T03:17:30;97532.94;;;10.43;100.00
36190;BME280;22232;50.914;13.858;2023-08-08T03:20:00;97538.63;;;10.34;100.00
36190;BME280;22232;50.914;13.858;2023-08-08T03:22:28;97541.56;;;10.33;100.00
36190;BME280;22232;50.914;13.858;2023-08-08T03:24:56;97534.84;;;10.30;100.00
36190;BME280;22232;50.914;13.858;2023-08-08T03:27:24;97538.78;;;10.28;100.00
36190;BME280;22232;50.914;13.858;2023-08-08T03:29:52;97539.22;;;10.25;100.00
36190;BME280;22232;50.914;13.858;2023-08-08T03:32:22;97534.03;;;10.30;100.00
36190;BME280;22232;50.914;13.858;2023-08-08T03:34:50;97534.34;;;10.22;100.00
36190;BME280;22232;50.914;13.858;2023-08-08T03:37:17;97529.16;;;10.27;100.00
36190;BME280;22232;50.914;13.858;2023-08-08T03:39:47;97526.69;;;10.25;100.00
36190;BME280;22232;50.914;13.858;2023-08-08T03:42:15;97522.41;;;10.24;100.00
36190;BME280;22232;50.914;13.858;2023-08-08T03:44:43;97530.75;;;10.16;100.00
36190;BME280;22232;50.914;13.858;2023-08-08T03:47:12;97527.41;;;10.32;100.00
36190;BME280;22232;50.914;13.858;2023-08-08T03:49:47;97526.53;;;10.55;100.00
36190;BME280;22232;50.914;13.858;2023-08-08T03:52:14;97527.84;;;10.82;100.00
36190;BME280;22232;50.914;13.858;2023-08-08T03:54:43;97526.28;;;11.14;100.00
36190;BME280;22232;50.914;13.858;2023-08-08T03:57:11;97530.91;;;11.53;100.00
36190;BME280;22232;50.914;13.858;2023-08-08T03:59:40;97524.03;;;11.90;100.00
36190;BME280;22232;50.914;13.858;2023-08-08T04:02:08;97529.78;;;12.43;100.00
36190;BME280;22232;50.914;13.858;2023-08-08T04:04:36;97519.44;;;13.01;100.00
36190;BME280;22232;50.914;13.858;2023-08-08T04:07:03;97524.13;;;13.43;100.00
36190;BME280;22232;50.914;13.858;2023-08-08T04:09:31;97524.22;;;13.26;100.00
36190;BME280;22232;50.914;13.858;2023-08-08T04:11:59;97528.22;;;13.56;100.00
36190;BME280;22232;50.914;13.858;2023-08-08T04:14:27;97522.69;;;14.10;100.00
36190;BME280;22232;50.914;13.858;2023-08-08T04:16:55;97524.56;;;14.72;100.00
36190;BME280;22232;50.914;13.858;2023-08-08T04:19:23;97521.38;;;14.80;100.00
36190;BME280;22232;50.914;13.858;2023-08-08T04:21:51;97523.59;;;15.29;100.00
36190;BME280;22232;50.914;13.858;2023-08-08T04:24:19;97517.97;;;15.56;100.00
36190;BME280;22232;50.914;13.858;2023-08-08T04:26:46;97509.88;;;15.97;100.00
36190;BME280;22232;50.914;13.858;2023-08-08T04:29:14;97515.41;;;16.37;100.00
36190;BME280;22232;50.914;13.858;2023-08-08T04:31:42;97507.06;;;16.43;97.29
36190;BME280;22232;50.914;13.858;2023-08-08T04:34:09;97504.63;;;16.47;98.10
36190;BME280;22232;50.914;13.858;2023-08-08T04:36:37;97504.00;;;15.75;100.00
36190;BME280;22232;50.914;13.858;2023-08-08T04:39:05;97494.56;;;15.06;100.00
36190;BME280;22232;50.914;13.858;2023-08-08T04:41:33;97503.19;;;15.44;100.00
36190;BME280;22232;50.914;13.858;2023-08-08T04:44:01;97500.09;;;16.22;100.00
36190;BME280;22232;50.914;13.858;2023-08-08T04:46:29;97511.22;;;16.80;96.96
36190;BME280;22232;50.914;13.858;2023-08-08T04:48:57;97510.06;;;16.32;98.31
36190;BME280;22232;50.914;13.858;2023-08-08T04:51:25;97499.41;;;15.40;100.00
36190;BME280;22232;50.914;13.858;2023-08-08T04:53:52;97514.47;;;15.15;100.00
36190;BME280;22232;50.914;13.858;2023-08-08T04:56:20;97513.38;;;15.06;100.00
36190;BME280;22232;50.914;13.858;2023-08-08T04:58:48;97520.78;;;14.53;100.00
36190;BME280;22232;50.914;13.858;2023-08-08T05:01:16;97516.34;;;14.31;100.00
36190;BME280;22232;50.914;13.858;2023-08-08T05:03:46;97522.84;;;13.88;100.00
36190;BME280;22232;50.914;13.858;2023-08-08T05:06:13;97525.38;;;13.67;100.00
36190;BME280;22232;50.914;13.858;2023-08-08T05:08:42;97529.78;;;13.46;100.00
36190;BME280;22232;50.914;13.858;2023-08-08T05:11:09;97540.53;;;13.24;100.00
36190;BME280;22232;50.914;13.858;2023-08-08T05:13:37;97536.94;;;13.14;100.00
36190;BME280;22232;50.914;13.858;2023-08-08T05:16:05;97546.78;;;13.08;100.00
36190;BME280;22232;50.914;13.858;2023-08-08T05:18:33;97532.41;;;12.87;100.00
36190;BME280;22232;50.914;13.858;2023-08-08T05:21:01;97534.25;;;12.81;100.00
36190;BME280;22232;50.914;13.858;2023-08-08T05:23:29;97527.38;;;13.18;100.00
36190;BME280;22232;50.914;13.858;2023-08-08T05:25:56;97525.00;;;13.96;100.00
36190;BME280;22232;50.914;13.858;2023-08-08T05:28:24;97523.59;;;15.40;100.00
36190;BME280;22232;50.914;13.858;2023-08-08T05:30:52;97513.53;;;16.32;100.00
36190;BME280;22232;50.914;13.858;2023-08-08T05:33:20;97515.22;;;17.27;100.00
36190;BME280;22232;50.914;13.858;2023-08-08T05:35:48;97517.09;;;17.61;96.38
36190;BME280;22232;50.914;13.858;2023-08-08T05:38:15;97519.31;;;17.19;96.23
36190;BME280;22232;50.914;13.858;2023-08-08T05:40:43;97513.41;;;17.12;97.24
36190;BME280;22232;50.914;13.858;2023-08-08T05:43:11;97519.06;;;16.66;100.00
36190;BME280;22232;50.914;13.858;2023-08-08T05:45:45;97517.41;;;15.90;100.00
36190;BME280;22232;50.914;13.858;2023-08-08T05:48:12;97521.19;;;15.33;100.00
36190;BME280;22232;50.914;13.858;2023-08-08T05:50:40;97523.56;;;14.94;100.00
36190;BME280;22232;50.914;13.858;2023-08-08T05:53:08;97528.63;;;14.75;100.00
36190;BME280;22232;50.914;13.858;2023-08-08T05:55:36;97530.41;;;14.49;100.00
36190;BME280;22232;50.914;13.858;2023-08-08T05:58:04;97538.97;;;14.45;100.00
36190;BME280;22232;50.914;13.858;2023-08-08T06:00:32;97543.34;;;14.14;100.00
36190;BME280;22232;50.914;13.858;2023-08-08T06:02:59;97539.78;;;13.98;100.00
36190;BME280;22232;50.914;13.858;2023-08-08T06:05:27;97534.88;;;13.85;100.00
36190;BME280;22232;50.914;13.858;2023-08-08T06:07:55;97542.31;;;13.78;100.00
36190;BME280;22232;50.914;13.858;2023-08-08T06:10:23;97547.91;;;13.71;100.00
36190;BME280;22232;50.914;13.858;2023-08-08T06:12:52;97545.97;;;13.62;100.00
36190;BME280;22232;50.914;13.858;2023-08-08T06:15:20;97548.66;;;13.62;100.00
36190;BME280;22232;50.914;13.858;2023-08-08T06:17:48;97544.09;;;13.62;100.00
36190;BME280;22232;50.914;13.858;2023-08-08T06:20:16;97547.00;;;13.56;100.00
36190;BME280;22232;50.914;13.858;2023-08-08T06:22:44;97545.56;;;13.48;100.00
36190;BME280;22232;50.914;13.858;2023-08-08T06:25:12;97544.94;;;13.36;100.00
36190;BME280;22232;50.914;13.858;2023-08-08T06:27:40;97552.97;;;13.36;100.00
36190;BME280;22232;50.914;13.858;2023-08-08T06:30:08;97557.81;;;13.39;100.00
36190;BME280;22232;50.914;13.858;2023-08-08T06:32:36;97559.09;;;13.31;100.00
36190;BME280;22232;50.914;13.858;2023-08-08T06:35:04;97553.84;;;13.41;100.00
36190;BME280;22232;50.914;13.858;2023-08-08T06:37:32;97555.41;;;13.37;100.00
36190;BME280;22232;50.914;13.858;2023-08-08T06:40:00;97557.81;;;13.39;100.00
36190;BME280;22232;50.914;13.858;2023-08-08T06:42:28;97568.00;;;13.37;100.00
36190;BME280;22232;50.914;13.858;2023-08-08T06:45:00;97565.84;;;13.34;100.00
36190;BME280;22232;50.914;13.858;2023-08-08T06:47:28;97559.16;;;13.36;100.00
36190;BME280;22232;50.914;13.858;2023-08-08T06:49:55;97563.53;;;13.47;100.00
36190;BME280;22232;50.914;13.858;2023-08-08T06:52:23;97556.78;;;13.40;100.00
36190;BME280;22232;50.914;13.858;2023-08-08T06:54:51;97560.50;;;13.39;100.00
36190;BME280;22232;50.914;13.858;2023-08-08T06:57:19;97556.28;;;13.43;100.00
36190;BME280;22232;50.914;13.858;2023-08-08T06:59:47;97553.31;;;13.44;100.00
36190;BME280;22232;50.914;13.858;2023-08-08T07:02:19;97553.84;;;13.41;100.00
36190;BME280;22232;50.914;13.858;2023-08-08T07:04:48;97552.50;;;13.44;100.00
36190;BME280;22232;50.914;13.858;2023-08-08T07:07:16;97550.13;;;13.47;100.00
36190;BME280;22232;50.914;13.858;2023-08-08T07:09:44;97548.25;;;13.48;100.00
36190;BME280;22232;50.914;13.858;2023-08-08T07:12:11;97548.25;;;13.48;100.00
36190;BME280;22232;50.914;13.858;2023-08-08T07:14:39;97547.22;;;13.54;100.00
36190;BME280;22232;50.914;13.858;2023-08-08T07:17:07;97561.75;;;13.58;100.00
36190;BME280;22232;50.914;13.858;2023-08-08T07:19:35;97559.88;;;13.59;100.00
36190;BME280;22232;50.914;13.858;2023-08-08T07:22:03;97568.47;;;13.61;100.00
36190;BME280;22232;50.914;13.858;2023-08-08T07:24:31;97565.28;;;13.64;100.00
36190;BME280;22232;50.914;13.858;2023-08-08T07:27:00;97563.44;;;13.69;100.00
36190;BME280;22232;50.914;13.858;2023-08-08T07:29:27;97566.50;;;13.83;100.00
36190;BME280;22232;50.914;13.858;2023-08-08T07:31:57;97561.69;;;13.85;100.00
36190;BME280;22232;50.914;13.858;2023-08-08T07:34:25;97555.03;;;13.93;100.00
36190;BME280;22232;50.914;13.858;2023-08-08T07:36:53;97545.84;;;13.84;100.00
36190;BME280;22232;50.914;13.858;2023-08-08T07:39:21;97546.34;;;13.75;100.00
36190;BME280;22232;50.914;13.858;2023-08-08T07:41:50;97532.13;;;13.75;100.00
36190;BME280;22232;50.914;13.858;2023-08-08T07:44:17;97528.06;;;13.72;100.00
36190;BME280;22232;50.914;13.858;2023-08-08T07:46:45;97527.88;;;13.84;100.00
36190;BME280;22232;50.914;13.858;2023-08-08T07:49:13;97518.88;;;14.00;100.00
36190;BME280;22232;50.914;13.858;2023-08-08T07:51:41;97517.34;;;14.15;100.00
36190;BME280;22232;50.914;13.858;2023-08-08T07:54:08;97517.06;;;14.11;100.00
36190;BME280;22232;50.914;13.858;2023-08-08T07:56:38;97515.16;;;14.07;100.00
36190;BME280;22232;50.914;13.858;2023-08-08T07:59:05;97525.97;;;14.27;100.00
36190;BME280;22232;50.914;13.858;2023-08-08T08:01:33;97530.41;;;14.49;100.00
36190;BME280;22232;50.914;13.858;2023-08-08T08:04:01;97524.84;;;14.65;100.00
36190;BME280;22232;50.914;13.858;2023-08-08T08:06:30;97524.91;;;14.86;100.00
36190;BME280;22232;50.914;13.858;2023-08-08T08:08:58;97530.78;;;14.88;100.00
36190;BME280;22232;50.914;13.858;2023-08-08T08:11:27;97530.53;;;14.89;100.00
36190;BME280;22232;50.914;13.858;2023-08-08T08:13:54;97523.28;;;15.00;100.00
36190;BME280;22232;50.914;13.858;2023-08-08T08:16:22;97532.19;;;15.11;100.00
36190;BME280;22232;50.914;13.858;2023-08-08T08:18:50;97524.16;;;15.26;100.00
36190;BME280;22232;50.914;13.858;2023-08-08T08:21:18;97537.03;;;15.40;100.00
36190;BME280;22232;50.914;13.858;2023-08-08T08:23:46;97540.00;;;15.48;100.00
36190;BME280;22232;50.914;13.858;2023-08-08T08:26:14;97535.97;;;15.61;100.00
36190;BME280;22232;50.914;13.858;2023-08-08T08:28:41;97533.84;;;15.83;100.00
36190;BME280;22232;50.914;13.858;2023-08-08T08:31:09;97537.63;;;15.72;100.00
36190;BME280;22232;50.914;13.858;2023-08-08T08:33:37;97537.88;;;15.86;100.00
36190;BME280;22232;50.914;13.858;2023-08-08T08:36:05;97531.94;;;16.04;100.00
36190;BME280;22232;50.914;13.858;2023-08-08T08:38:33;97541.34;;;16.02;100.00
36190;BME280;22232;50.914;13.858;2023-08-08T08:41:02;97536.75;;;16.02;100.00
36190;BME280;22232;50.914;13.858;2023-08-08T08:43:31;97530.59;;;16.02;100.00
36190;BME280;22232;50.914;13.858;2023-08-08T08:46:00;97526.00;;;16.02;100.00
36190;BME280;22232;50.914;13.858;2023-08-08T08:48:31;97531.97;;;15.89;100.00
36190;BME280;22232;50.914;13.858;2023-08-08T08:50:59;97527.91;;;15.92;100.00
36190;BME280;22232;50.914;13.858;2023-08-08T08:53:27;97536.25;;;15.85;100.00
36190;BME280;22232;50.914;13.858;2023-08-08T08:55:56;97538.13;;;15.90;100.00
36190;BME280;22232;50.914;13.858;2023-08-08T08:58:25;97543.78;;;15.93;100.00
36190;BME280;22232;50.914;13.858;2023-08-08T09:00:54;97530.28;;;16.09;100.00
36190;BME280;22232;50.914;13.858;2023-08-08T09:03:22;97537.28;;;16.15;100.00
36190;BME280;22232;50.914;13.858;2023-08-08T09:05:51;97536.72;;;16.18;100.00
36190;BME280;22232;50.914;13.858;2023-08-08T09:08:22;97543.41;;;16.31;100.00
36190;BME280;22232;50.914;13.858;2023-08-08T09:10:50;97536.41;;;16.35;100.00
36190;BME280;22232;50.914;13.858;2023-08-08T09:13:18;97542.59;;;16.40;100.00
36190;BME280;22232;50.914;13.858;2023-08-08T09:15:47;97542.31;;;16.37;100.00
36190;BME280;22232;50.914;13.858;2023-08-08T09:18:16;97548.78;;;16.41;100.00
36190;BME280;22232;50.914;13.858;2023-08-08T09:20:49;97545.28;;;16.35;100.00
36190;BME280;22232;50.914;13.858;2023-08-08T09:23:17;97544.81;;;16.13;100.00
36190;BME280;22232;50.914;13.858;2023-08-08T09:25:44;97540.25;;;16.08;100.00
36190;BME280;22232;50.914;13.858;2023-08-08T09:28:12;97539.38;;;16.33;100.00
36190;BME280;22232;50.914;13.858;2023-08-08T09:30:41;97539.63;;;16.42;100.00
36190;BME280;22232;50.914;13.858;2023-08-08T09:33:11;97546.66;;;16.33;100.00
36190;BME280;22232;50.914;13.858;2023-08-08T09:35:39;97545.53;;;16.39;100.00
36190;BME280;22232;50.914;13.858;2023-08-08T09:38:07;97551.44;;;16.46;100.00
36190;BME280;22232;50.914;13.858;2023-08-08T09:40:35;97546.34;;;16.34;100.00
36190;BME280;22232;50.914;13.858;2023-08-08T09:43:04;97544.44;;;16.45;100.00
36190;BME280;22232;50.914;13.858;2023-08-08T09:45:38;97546.81;;;16.62;100.00
36190;BME280;22232;50.914;13.858;2023-08-08T09:48:06;97554.63;;;16.58;100.00
36190;BME280;22232;50.914;13.858;2023-08-08T09:50:35;97549.22;;;16.68;100.00
36190;BME280;22232;50.914;13.858;2023-08-08T09:53:03;97544.06;;;16.72;100.00
36190;BME280;22232;50.914;13.858;2023-08-08T09:55:33;97544.59;;;16.79;100.00
36190;BME280;22232;50.914;13.858;2023-08-08T09:58:02;97543.25;;;16.82;100.00
36190;BME280;22232;50.914;13.858;2023-08-08T10:00:30;97541.88;;;16.89;100.00
36190;BME280;22232;50.914;13.858;2023-08-08T10:03:01;97545.81;;;17.07;100.00
36190;BME280;22232;50.914;13.858;2023-08-08T10:05:30;97544.69;;;17.13;100.00
36190;BME280;22232;50.914;13.858;2023-08-08T10:07:58;97544.69;;;17.13;100.00
36190;BME280;22232;50.914;13.858;2023-08-08T10:10:26;97540.41;;;17.07;100.00
36190;BME280;22232;50.914;13.858;2023-08-08T10:12:54;97536.41;;;17.00;100.00
36190;BME280;22232;50.914;13.858;2023-08-08T10:15:26;97538.88;;;16.96;100.00
36190;BME280;22232;50.914;13.858;2023-08-08T10:17:57;97533.56;;;16.81;99.94
36190;BME280;22232;50.914;13.858;2023-08-08T10:20:25;97534.72;;;16.59;99.75
36190;BME280;22232;50.914;13.858;2023-08-08T10:22:54;97534.28;;;16.32;98.56
36190;BME280;22232;50.914;13.858;2023-08-08T10:25:27;97541.50;;;16.36;100.00
36190;BME280;22232;50.914;13.858;2023-08-08T10:28:05;97532.88;;;16.39;100.00
36190;BME280;22232;50.914;13.858;2023-08-08T10:30:57;97539.00;;;16.55;100.00
36190;BME280;22232;50.914;13.858;2023-08-08T10:33:26;97531.22;;;16.54;100.00
36190;BME280;22232;50.914;13.858;2023-08-08T10:35:59;97533.63;;;16.60;99.32
36190;BME280;22232;50.914;13.858;2023-08-08T10:38:43;97536.47;;;16.89;100.00
36190;BME280;22232;50.914;13.858;2023-08-08T10:41:13;97532.38;;;17.36;97.65
36190;BME280;22232;50.914;13.858;2023-08-08T10:43:53;97519.91;;;17.80;95.20
36190;BME280;22232;50.914;13.858;2023-08-08T10:46:29;97522.66;;;18.28;92.03
36190;BME280;22232;50.914;13.858;2023-08-08T10:48:59;97523.28;;;18.44;89.75
36190;BME280;22232;50.914;13.858;2023-08-08T10:51:39;97514.09;;;18.45;82.91
36190;BME280;22232;50.914;13.858;2023-08-08T10:54:23;97509.72;;;18.49;83.40
36190;BME280;22232;50.914;13.858;2023-08-08T10:56:56;97511.56;;;18.53;82.23
36190;BME280;22232;50.914;13.858;2023-08-08T10:59:36;97506.72;;;18.74;84.73
36190;BME280;22232;50.914;13.858;2023-08-08T11:02:04;97517.97;;;18.82;82.57
36190;BME280;22232;50.914;13.858;2023-08-08T11:04:33;97505.59;;;18.99;83.10
36190;BME280;22232;50.914;13.858;2023-08-08T11:07:02;97505.59;;;19.32;84.89
36190;BME280;22232;50.914;13.858;2023-08-08T11:09:30;97506.44;;;19.65;78.26
36190;BME280;22232;50.914;13.858;2023-08-08T11:11:58;97503.59;;;19.76;78.14
36190;BME280;22232;50.914;13.858;2023-08-08T11:14:26;97497.19;;;19.85;79.45
36190;BME280;22232;50.914;13.858;2023-08-08T11:16:54;97498.94;;;20.09;71.02
36190;BME280;22232;50.914;13.858;2023-08-08T11:19:22;97503.72;;;19.98;70.63
36190;BME280;22232;50.914;13.858;2023-08-08T11:21:51;97492.47;;;20.05;72.19
36190;BME280;22232;50.914;13.858;2023-08-08T11:24:19;97495.91;;;19.97;69.92
36190;BME280;22232;50.914;13.858;2023-08-08T11:26:47;97496.97;;;19.96;68.84
36190;BME280;22232;50.914;13.858;2023-08-08T11:29:15;97489.69;;;20.10;69.20
36190;BME280;22232;50.914;13.858;2023-08-08T11:31:43;97481.16;;;20.16;69.14
36190;BME280;22232;50.914;13.858;2023-08-08T11:34:11;97493.38;;;20.14;67.54
36190;BME280;22232;50.914;13.858;2023-08-08T11:36:40;97492.16;;;19.92;66.86
36190;BME280;22232;50.914;13.858;2023-08-08T11:39:08;97476.91;;;19.69;68.99
36190;BME280;22232;50.914;13.858;2023-08-08T11:41:38;97483.72;;;19.80;74.82
36190;BME280;22232;50.914;13.858;2023-08-08T11:44:07;97475.34;;;19.96;74.71
36190;BME280;22232;50.914;13.858;2023-08-08T11:46:43;97461.09;;;20.04;67.33
36190;BME280;22232;50.914;13.858;2023-08-08T11:49:14;97465.31;;;20.37;68.56
36190;BME280;22232;50.914;13.858;2023-08-08T11:51:45;97465.31;;;20.51;70.38
36190;BME280;22232;50.914;13.858;2023-08-08T11:54:13;97461.88;;;20.73;64.66
36190;BME280;22232;50.914;13.858;2023-08-08T11:56:42;97457.47;;;21.22;60.23
36190;BME280;22232;50.914;13.858;2023-08-08T11:59:10;97444.59;;;21.73;62.71
36190;BME280;22232;50.914;13.858;2023-08-08T12:01:41;97438.72;;;22.19;57.17
36190;BME280;22232;50.914;13.858;2023-08-08T12:04:09;97434.13;;;22.37;54.80
36190;BME280;22232;50.914;13.858;2023-08-08T12:06:38;97416.75;;;22.64;53.62
36190;BME280;22232;50.914;13.858;2023-08-08T12:09:14;97428.72;;;22.46;54.23
36190;BME280;22232;50.914;13.858;2023-08-08T12:11:42;97422.53;;;22.14;54.47
36190;BME280;22232;50.914;13.858;2023-08-08T12:14:12;97418.34;;;22.08;52.97
36190;BME280;22232;50.914;13.858;2023-08-08T12:16:42;97400.53;;;21.76;53.59
36190;BME280;22232;50.914;13.858;2023-08-08T12:19:11;97410.97;;;22.00;53.16
36190;BME280;22232;50.914;13.858;2023-08-08T12:21:40;97412.44;;;22.15;55.62
36190;BME280;22232;50.914;13.858;2023-08-08T12:24:07;97399.78;;;22.50;52.72
36190;BME280;22232;50.914;13.858;2023-08-08T12:26:35;97391.31;;;22.60;51.33
36190;BME280;22232;50.914;13.858;2023-08-08T12:29:04;97409.56;;;23.03;51.59
36190;BME280;22232;50.914;13.858;2023-08-08T12:31:32;97402.03;;;22.83;49.14
36190;BME280;22232;50.914;13.858;2023-08-08T12:34:00;97400.88;;;22.32;52.61
36190;BME280;22232;50.914;13.858;2023-08-08T12:36:28;97387.31;;;21.92;53.13
36190;BME280;22232;50.914;13.858;2023-08-08T12:38:56;97405.75;;;21.72;51.90
36190;BME280;22232;50.914;13.858;2023-08-08T12:41:24;97405.50;;;21.29;53.62
36190;BME280;22232;50.914;13.858;2023-08-08T12:43:57;97410.28;;;21.01;55.17
36190;BME280;22232;50.914;13.858;2023-08-08T12:46:24;97409.72;;;21.13;55.55
36190;BME280;22232;50.914;13.858;2023-08-08T12:48:52;97407.31;;;20.89;56.31
36190;BME280;22232;50.914;13.858;2023-08-08T12:51:20;97406.38;;;20.93;56.25
36190;BME280;22232;50.914;13.858;2023-08-08T12:53:48;97400.59;;;20.86;58.46